sensor_id;sensor_type;location;lat;lon;timestamp;P1;durP1;ratioP1;P2;durP2;ratioP2
37641;SDS011;23486;51.956;5.888;2023-06-14T00:01:34;4.20;;;1.13;;
37641;SDS011;23486;51.956;5.888;2023-06-14T00:04:00;2.78;;;0.85;;
37641;SDS011;23486;51.956;5.888;2023-06-14T00:06:26;3.10;;;1.00;;
37641;SDS011;23486;51.956;5.888;2023-06-14T00:08:53;3.38;;;1.13;;
37641;SDS011;23486;51.956;5.888;2023-06-14T00:11:19;5.10;;;1.20;;
37641;SDS011;23486;51.956;5.888;2023-06-14T00:13:45;4.03;;;1.30;;
37641;SDS011;23486;51.956;5.888;2023-06-14T00:16:11;3.45;;;1.17;;
37641;SDS011;23486;51.956;5.888;2023-06-14T00:18:37;5.32;;;1.10;;
37641;SDS011;23486;51.956;5.888;2023-06-14T00:21:05;4.32;;;1.38;;
37641;SDS011;23486;51.956;5.888;2023-06-14T00:23:31;18.98;;;1.13;;
37641;SDS011;23486;51.956;5.888;2023-06-14T00:25:56;4.13;;;1.27;;
37641;SDS011;23486;51.956;5.888;2023-06-14T00:28:22;4.40;;;1.20;;
37641;SDS011;23486;51.956;5.888;2023-06-14T00:30:47;4.85;;;0.90;;
37641;SDS011;23486;51.956;5.888;2023-06-14T00:33:13;3.53;;;0.80;;
37641;SDS011;23486;51.956;5.888;2023-06-14T00:35:39;4.57;;;1.10;;
37641;SDS011;23486;51.956;5.888;2023-06-14T00:38:05;2.95;;;0.93;;
37641;SDS011;23486;51.956;5.888;2023-06-14T00:40:30;5.07;;;1.10;;
37641;SDS011;23486;51.956;5.888;2023-06-14T00:42:56;2.60;;;0.70;;
37641;SDS011;23486;51.956;5.888;2023-06-14T00:45:21;4.03;;;1.08;;
37641;SDS011;23486;51.956;5.888;2023-06-14T00:47:50;6.80;;;1.00;;
37641;SDS011;23486;51.956;5.888;2023-06-14T00:50:20;4.90;;;1.13;;
37641;SDS011;23486;51.956;5.888;2023-06-14T00:52:48;3.50;;;1.05;;
37641;SDS011;23486;51.956;5.888;2023-06-14T00:55:17;3.63;;;1.00;;
37641;SDS011;23486;51.956;5.888;2023-06-14T00:57:42;4.25;;;1.23;;
37641;SDS011;23486;51.956;5.888;2023-06-14T01:00:11;5.10;;;1.45;;
37641;SDS011;23486;51.956;5.888;2023-06-14T01:02:37;3.15;;;0.90;;
37641;SDS011;23486;51.956;5.888;2023-06-14T01:05:03;4.25;;;0.90;;
37641;SDS011;23486;51.956;5.888;2023-06-14T01:15:43;3.72;;;1.30;;
37641;SDS011;23486;51.956;5.888;2023-06-14T01:18:09;2.65;;;0.80;;
37641;SDS011;23486;51.956;5.888;2023-06-14T01:20:42;3.10;;;0.82;;
37641;SDS011;23486;51.956;5.888;2023-06-14T01:23:16;3.40;;;0.90;;
37641;SDS011;23486;51.956;5.888;2023-06-14T01:25:45;2.72;;;0.73;;
37641;SDS011;23486;51.956;5.888;2023-06-14T01:28:12;4.03;;;0.90;;
37641;SDS011;23486;51.956;5.888;2023-06-14T01:30:40;4.10;;;1.40;;
37641;SDS011;23486;51.956;5.888;2023-06-14T01:33:20;3.95;;;1.10;;
37641;SDS011;23486;51.956;5.888;2023-06-14T01:35:49;2.85;;;0.90;;
37641;SDS011;23486;51.956;5.888;2023-06-14T01:38:20;4.53;;;0.82;;
37641;SDS011;23486;51.956;5.888;2023-06-14T01:40:47;4.93;;;1.10;;
37641;SDS011;23486;51.956;5.888;2023-06-14T01:43:15;4.30;;;1.10;;
37641;SDS011;23486;51.956;5.888;2023-06-14T01:45:42;2.45;;;0.80;;
37641;SDS011;23486;51.956;5.888;2023-06-14T01:48:09;3.78;;;0.88;;
37641;SDS011;23486;51.956;5.888;2023-06-14T01:50:35;5.05;;;1.15;;
37641;SDS011;23486;51.956;5.888;2023-06-14T01:53:07;3.15;;;0.80;;
37641;SDS011;23486;51.956;5.888;2023-06-14T01:55:36;3.58;;;1.25;;
37641;SDS011;23486;51.956;5.888;2023-06-14T01:58:02;3.22;;;0.70;;
37641;SDS011;23486;51.956;5.888;2023-06-14T02:00:29;7.32;;;1.02;;
37641;SDS011;23486;51.956;5.888;2023-06-14T02:02:55;5.53;;;0.70;;
37641;SDS011;23486;51.956;5.888;2023-06-14T02:05:20;3.58;;;1.00;;
37641;SDS011;23486;51.956;5.888;2023-06-14T02:07:46;3.17;;;0.80;;
37641;SDS011;23486;51.956;5.888;2023-06-14T02:10:13;2.63;;;0.90;;
37641;SDS011;23486;51.956;5.888;2023-06-14T02:12:40;3.90;;;1.00;;
37641;SDS011;23486;51.956;5.888;2023-06-14T02:15:07;8.18;;;1.02;;
37641;SDS011;23486;51.956;5.888;2023-06-14T02:17:33;5.70;;;0.90;;
37641;SDS011;23486;51.956;5.888;2023-06-14T02:19:59;2.67;;;0.82;;
37641;SDS011;23486;51.956;5.888;2023-06-14T02:22:25;2.55;;;0.80;;
37641;SDS011;23486;51.956;5.888;2023-06-14T02:24:51;3.28;;;0.98;;
37641;SDS011;23486;51.956;5.888;2023-06-14T02:27:17;4.88;;;0.80;;
37641;SDS011;23486;51.956;5.888;2023-06-14T02:29:43;3.47;;;0.95;;
37641;SDS011;23486;51.956;5.888;2023-06-14T02:32:08;5.22;;;0.88;;
37641;SDS011;23486;51.956;5.888;2023-06-14T02:34:34;3.53;;;0.88;;
37641;SDS011;23486;51.956;5.888;2023-06-14T02:37:00;3.92;;;0.80;;
37641;SDS011;23486;51.956;5.888;2023-06-14T02:39:28;3.65;;;0.73;;
37641;SDS011;23486;51.956;5.888;2023-06-14T02:41:54;3.97;;;0.70;;
37641;SDS011;23486;51.956;5.888;2023-06-14T02:44:23;4.25;;;1.10;;
37641;SDS011;23486;51.956;5.888;2023-06-14T02:46:50;4.25;;;0.90;;
37641;SDS011;23486;51.956;5.888;2023-06-14T02:49:20;4.25;;;0.98;;
37641;SDS011;23486;51.956;5.888;2023-06-14T02:51:46;2.78;;;0.95;;
37641;SDS011;23486;51.956;5.888;2023-06-14T02:54:12;3.15;;;1.02;;
37641;SDS011;23486;51.956;5.888;2023-06-14T02:56:37;3.40;;;1.00;;
37641;SDS011;23486;51.956;5.888;2023-06-14T02:59:03;2.20;;;0.85;;
37641;SDS011;23486;51.956;5.888;2023-06-14T03:01:28;6.05;;;0.90;;
37641;SDS011;23486;51.956;5.888;2023-06-14T03:03:59;4.90;;;0.80;;
37641;SDS011;23486;51.956;5.888;2023-06-14T03:06:29;3.05;;;1.15;;
37641;SDS011;23486;51.956;5.888;2023-06-14T03:08:55;7.10;;;0.82;;
37641;SDS011;23486;51.956;5.888;2023-06-14T03:11:26;5.65;;;1.20;;
37641;SDS011;23486;51.956;5.888;2023-06-14T03:13:52;6.63;;;1.00;;
37641;SDS011;23486;51.956;5.888;2023-06-14T03:16:18;3.33;;;0.80;;
37641;SDS011;23486;51.956;5.888;2023-06-14T03:18:44;3.17;;;0.80;;
37641;SDS011;23486;51.956;5.888;2023-06-14T03:21:10;2.97;;;0.65;;
37641;SDS011;23486;51.956;5.888;2023-06-14T03:23:36;4.00;;;1.10;;
37641;SDS011;23486;51.956;5.888;2023-06-14T03:26:01;4.55;;;0.73;;
37641;SDS011;23486;51.956;5.888;2023-06-14T03:28:27;4.22;;;1.02;;
37641;SDS011;23486;51.956;5.888;2023-06-14T03:30:52;4.88;;;1.00;;
37641;SDS011;23486;51.956;5.888;2023-06-14T03:33:18;3.72;;;0.90;;
37641;SDS011;23486;51.956;5.888;2023-06-14T03:35:44;2.85;;;0.77;;
37641;SDS011;23486;51.956;5.888;2023-06-14T03:38:10;2.45;;;0.85;;
37641;SDS011;23486;51.956;5.888;2023-06-14T03:40:35;4.75;;;1.08;;
37641;SDS011;23486;51.956;5.888;2023-06-14T03:43:01;2.97;;;0.98;;
37641;SDS011;23486;51.956;5.888;2023-06-14T03:45:27;2.65;;;1.13;;
37641;SDS011;23486;51.956;5.888;2023-06-14T03:47:52;2.55;;;0.70;;
37641;SDS011;23486;51.956;5.888;2023-06-14T03:50:19;4.68;;;0.90;;
37641;SDS011;23486;51.956;5.888;2023-06-14T03:52:47;2.90;;;1.00;;
37641;SDS011;23486;51.956;5.888;2023-06-14T03:55:15;3.60;;;0.98;;
37641;SDS011;23486;51.956;5.888;2023-06-14T03:57:41;5.07;;;1.17;;
37641;SDS011;23486;51.956;5.888;2023-06-14T04:00:08;2.25;;;0.70;;
37641;SDS011;23486;51.956;5.888;2023-06-14T04:02:34;8.75;;;1.70;;
37641;SDS011;23486;51.956;5.888;2023-06-14T04:05:01;3.35;;;0.90;;
37641;SDS011;23486;51.956;5.888;2023-06-14T04:07:27;3.38;;;0.70;;
37641;SDS011;23486;51.956;5.888;2023-06-14T04:09:53;3.53;;;0.70;;
37641;SDS011;23486;51.956;5.888;2023-06-14T04:12:19;4.88;;;1.05;;
37641;SDS011;23486;51.956;5.888;2023-06-14T04:14:45;3.05;;;0.70;;
37641;SDS011;23486;51.956;5.888;2023-06-14T04:17:10;3.75;;;1.20;;
37641;SDS011;23486;51.956;5.888;2023-06-14T04:19:36;6.32;;;0.90;;
37641;SDS011;23486;51.956;5.888;2023-06-14T04:22:02;5.00;;;1.00;;
37641;SDS011;23486;51.956;5.888;2023-06-14T04:24:28;2.67;;;0.70;;
37641;SDS011;23486;51.956;5.888;2023-06-14T04:26:57;4.93;;;0.80;;
37641;SDS011;23486;51.956;5.888;2023-06-14T04:29:28;4.47;;;1.08;;
37641;SDS011;23486;51.956;5.888;2023-06-14T04:31:54;4.03;;;0.77;;
37641;SDS011;23486;51.956;5.888;2023-06-14T04:34:25;8.57;;;1.05;;
37641;SDS011;23486;51.956;5.888;2023-06-14T04:36:54;4.50;;;1.10;;
37641;SDS011;23486;51.956;5.888;2023-06-14T04:39:21;7.53;;;1.00;;
37641;SDS011;23486;51.956;5.888;2023-06-14T04:41:51;4.35;;;0.68;;
37641;SDS011;23486;51.956;5.888;2023-06-14T04:44:17;5.35;;;0.95;;
37641;SDS011;23486;51.956;5.888;2023-06-14T04:46:44;4.22;;;0.90;;
37641;SDS011;23486;51.956;5.888;2023-06-14T04:49:14;3.65;;;0.70;;
37641;SDS011;23486;51.956;5.888;2023-06-14T04:51:41;3.80;;;0.82;;
37641;SDS011;23486;51.956;5.888;2023-06-14T04:54:07;4.50;;;0.80;;
37641;SDS011;23486;51.956;5.888;2023-06-14T04:56:38;3.40;;;0.80;;
37641;SDS011;23486;51.956;5.888;2023-06-14T04:59:03;3.10;;;0.85;;
37641;SDS011;23486;51.956;5.888;2023-06-14T05:01:30;3.25;;;0.70;;
37641;SDS011;23486;51.956;5.888;2023-06-14T05:03:59;3.40;;;0.60;;
37641;SDS011;23486;51.956;5.888;2023-06-14T05:06:25;2.13;;;0.70;;
37641;SDS011;23486;51.956;5.888;2023-06-14T05:08:52;6.43;;;1.00;;
37641;SDS011;23486;51.956;5.888;2023-06-14T05:11:18;8.43;;;1.20;;
37641;SDS011;23486;51.956;5.888;2023-06-14T05:13:44;3.00;;;0.88;;
37641;SDS011;23486;51.956;5.888;2023-06-14T05:16:13;2.97;;;0.80;;
37641;SDS011;23486;51.956;5.888;2023-06-14T05:18:40;3.75;;;1.17;;
37641;SDS011;23486;51.956;5.888;2023-06-14T05:21:06;3.08;;;1.10;;
37641;SDS011;23486;51.956;5.888;2023-06-14T05:23:31;2.75;;;0.82;;
37641;SDS011;23486;51.956;5.888;2023-06-14T05:25:57;3.08;;;0.90;;
37641;SDS011;23486;51.956;5.888;2023-06-14T05:28:23;5.05;;;0.93;;
37641;SDS011;23486;51.956;5.888;2023-06-14T05:30:49;3.33;;;0.95;;
37641;SDS011;23486;51.956;5.888;2023-06-14T05:33:15;5.45;;;0.82;;
37641;SDS011;23486;51.956;5.888;2023-06-14T05:35:41;2.05;;;0.73;;
37641;SDS011;23486;51.956;5.888;2023-06-14T05:38:06;3.05;;;1.02;;
37641;SDS011;23486;51.956;5.888;2023-06-14T05:40:32;5.55;;;0.90;;
37641;SDS011;23486;51.956;5.888;2023-06-14T05:42:58;3.97;;;0.75;;
37641;SDS011;23486;51.956;5.888;2023-06-14T05:45:24;3.78;;;0.90;;
37641;SDS011;23486;51.956;5.888;2023-06-14T05:47:49;4.40;;;0.80;;
37641;SDS011;23486;51.956;5.888;2023-06-14T05:50:15;2.35;;;0.75;;
37641;SDS011;23486;51.956;5.888;2023-06-14T05:52:44;5.25;;;0.68;;
37641;SDS011;23486;51.956;5.888;2023-06-14T05:55:09;4.22;;;0.88;;
37641;SDS011;23486;51.956;5.888;2023-06-14T05:57:37;2.80;;;1.00;;
37641;SDS011;23486;51.956;5.888;2023-06-14T06:00:03;4.13;;;1.17;;
37641;SDS011;23486;51.956;5.888;2023-06-14T06:05:02;3.05;;;1.00;;
37641;SDS011;23486;51.956;5.888;2023-06-14T06:07:28;2.40;;;0.80;;
37641;SDS011;23486;51.956;5.888;2023-06-14T06:09:53;5.45;;;1.10;;
37641;SDS011;23486;51.956;5.888;2023-06-14T06:12:19;5.03;;;1.25;;
37641;SDS011;23486;51.956;5.888;2023-06-14T06:14:44;3.25;;;1.00;;
37641;SDS011;23486;51.956;5.888;2023-06-14T06:17:10;3.55;;;1.00;;
37641;SDS011;23486;51.956;5.888;2023-06-14T06:19:35;4.43;;;0.90;;
37641;SDS011;23486;51.956;5.888;2023-06-14T06:22:01;3.17;;;0.85;;
37641;SDS011;23486;51.956;5.888;2023-06-14T06:24:27;5.07;;;1.10;;
37641;SDS011;23486;51.956;5.888;2023-06-14T06:26:52;3.95;;;0.90;;
37641;SDS011;23486;51.956;5.888;2023-06-14T06:29:19;4.05;;;1.08;;
37641;SDS011;23486;51.956;5.888;2023-06-14T06:31:44;8.02;;;1.13;;
37641;SDS011;23486;51.956;5.888;2023-06-14T06:34:10;3.25;;;0.85;;
37641;SDS011;23486;51.956;5.888;2023-06-14T06:36:36;3.17;;;1.10;;
37641;SDS011;23486;51.956;5.888;2023-06-14T06:39:02;3.60;;;0.85;;
37641;SDS011;23486;51.956;5.888;2023-06-14T06:41:34;3.42;;;0.90;;
37641;SDS011;23486;51.956;5.888;2023-06-14T06:44:02;2.85;;;0.80;;
37641;SDS011;23486;51.956;5.888;2023-06-14T06:46:27;2.67;;;0.90;;
37641;SDS011;23486;51.956;5.888;2023-06-14T06:48:53;2.78;;;0.90;;
37641;SDS011;23486;51.956;5.888;2023-06-14T06:51:19;2.80;;;1.08;;
37641;SDS011;23486;51.956;5.888;2023-06-14T06:53:47;3.65;;;0.80;;
37641;SDS011;23486;51.956;5.888;2023-06-14T06:56:20;2.63;;;1.00;;
37641;SDS011;23486;51.956;5.888;2023-06-14T06:58:48;2.08;;;0.75;;
37641;SDS011;23486;51.956;5.888;2023-06-14T07:01:14;4.60;;;1.02;;
37641;SDS011;23486;51.956;5.888;2023-06-14T07:03:40;2.65;;;0.80;;
37641;SDS011;23486;51.956;5.888;2023-06-14T07:06:06;4.47;;;1.27;;
37641;SDS011;23486;51.956;5.888;2023-06-14T07:08:32;2.63;;;0.90;;
37641;SDS011;23486;51.956;5.888;2023-06-14T07:10:57;2.97;;;0.90;;
37641;SDS011;23486;51.956;5.888;2023-06-14T07:13:23;3.17;;;0.80;;
37641;SDS011;23486;51.956;5.888;2023-06-14T07:15:48;2.00;;;0.68;;
37641;SDS011;23486;51.956;5.888;2023-06-14T07:18:14;3.33;;;0.65;;
37641;SDS011;23486;51.956;5.888;2023-06-14T07:20:40;4.57;;;0.98;;
37641;SDS011;23486;51.956;5.888;2023-06-14T07:23:07;2.70;;;0.70;;
37641;SDS011;23486;51.956;5.888;2023-06-14T07:25:33;2.75;;;0.82;;
37641;SDS011;23486;51.956;5.888;2023-06-14T07:27:58;3.75;;;0.88;;
37641;SDS011;23486;51.956;5.888;2023-06-14T07:30:24;3.30;;;0.63;;
37641;SDS011;23486;51.956;5.888;2023-06-14T07:32:52;3.15;;;0.70;;
37641;SDS011;23486;51.956;5.888;2023-06-14T07:35:18;3.97;;;0.65;;
37641;SDS011;23486;51.956;5.888;2023-06-14T07:37:43;2.78;;;0.60;;
37641;SDS011;23486;51.956;5.888;2023-06-14T07:40:10;4.07;;;0.60;;
37641;SDS011;23486;51.956;5.888;2023-06-14T07:42:36;2.47;;;0.60;;
37641;SDS011;23486;51.956;5.888;2023-06-14T07:45:03;3.72;;;0.60;;
37641;SDS011;23486;51.956;5.888;2023-06-14T07:47:29;2.38;;;0.55;;
37641;SDS011;23486;51.956;5.888;2023-06-14T07:49:55;2.15;;;0.60;;
37641;SDS011;23486;51.956;5.888;2023-06-14T07:52:20;4.45;;;0.68;;
37641;SDS011;23486;51.956;5.888;2023-06-14T07:54:46;2.75;;;0.50;;
37641;SDS011;23486;51.956;5.888;2023-06-14T07:57:12;4.20;;;0.60;;
37641;SDS011;23486;51.956;5.888;2023-06-14T07:59:38;1.77;;;0.50;;
37641;SDS011;23486;51.956;5.888;2023-06-14T08:02:03;2.83;;;0.50;;
37641;SDS011;23486;51.956;5.888;2023-06-14T08:04:29;4.70;;;0.50;;
37641;SDS011;23486;51.956;5.888;2023-06-14T08:06:55;1.55;;;0.40;;
37641;SDS011;23486;51.956;5.888;2023-06-14T08:09:21;1.60;;;0.40;;
37641;SDS011;23486;51.956;5.888;2023-06-14T08:11:47;2.88;;;0.45;;
37641;SDS011;23486;51.956;5.888;2023-06-14T08:14:13;1.52;;;0.60;;
37641;SDS011;23486;51.956;5.888;2023-06-14T08:16:39;4.35;;;0.80;;
37641;SDS011;23486;51.956;5.888;2023-06-14T08:19:04;2.65;;;0.50;;
37641;SDS011;23486;51.956;5.888;2023-06-14T08:21:30;1.40;;;0.55;;
37641;SDS011;23486;51.956;5.888;2023-06-14T08:23:58;2.97;;;0.40;;
37641;SDS011;23486;51.956;5.888;2023-06-14T08:26:24;2.10;;;0.50;;
37641;SDS011;23486;51.956;5.888;2023-06-14T08:28:54;2.25;;;0.40;;
37641;SDS011;23486;51.956;5.888;2023-06-14T08:31:20;1.70;;;0.40;;
37641;SDS011;23486;51.956;5.888;2023-06-14T08:33:45;2.08;;;0.55;;
37641;SDS011;23486;51.956;5.888;2023-06-14T08:36:14;2.13;;;0.50;;
37641;SDS011;23486;51.956;5.888;2023-06-14T08:38:40;1.83;;;0.55;;
37641;SDS011;23486;51.956;5.888;2023-06-14T08:41:05;4.10;;;0.40;;
37641;SDS011;23486;51.956;5.888;2023-06-14T08:43:31;4.00;;;0.50;;
37641;SDS011;23486;51.956;5.888;2023-06-14T08:45:58;4.60;;;0.55;;
37641;SDS011;23486;51.956;5.888;2023-06-14T08:48:28;5.32;;;0.70;;
37641;SDS011;23486;51.956;5.888;2023-06-14T08:50:55;2.42;;;0.70;;
37641;SDS011;23486;51.956;5.888;2023-06-14T08:53:26;3.03;;;0.40;;
37641;SDS011;23486;51.956;5.888;2023-06-14T08:55:56;1.63;;;0.50;;
37641;SDS011;23486;51.956;5.888;2023-06-14T08:58:25;1.38;;;0.50;;
37641;SDS011;23486;51.956;5.888;2023-06-14T09:00:51;2.28;;;0.50;;
37641;SDS011;23486;51.956;5.888;2023-06-14T09:03:17;3.10;;;0.50;;
37641;SDS011;23486;51.956;5.888;2023-06-14T09:05:45;1.50;;;0.50;;
37641;SDS011;23486;51.956;5.888;2023-06-14T09:08:12;1.77;;;0.60;;
37641;SDS011;23486;51.956;5.888;2023-06-14T09:10:41;3.05;;;0.57;;
37641;SDS011;23486;51.956;5.888;2023-06-14T09:13:06;4.82;;;1.08;;
37641;SDS011;23486;51.956;5.888;2023-06-14T09:15:32;1.40;;;0.43;;
37641;SDS011;23486;51.956;5.888;2023-06-14T09:18:00;2.28;;;0.40;;
37641;SDS011;23486;51.956;5.888;2023-06-14T09:20:28;3.88;;;0.80;;
37641;SDS011;23486;51.956;5.888;2023-06-14T09:22:57;2.28;;;0.47;;
37641;SDS011;23486;51.956;5.888;2023-06-14T09:25:26;2.40;;;0.57;;
37641;SDS011;23486;51.956;5.888;2023-06-14T09:27:52;3.03;;;0.50;;
37641;SDS011;23486;51.956;5.888;2023-06-14T09:30:19;1.88;;;0.40;;
37641;SDS011;23486;51.956;5.888;2023-06-14T09:32:45;3.25;;;0.50;;
37641;SDS011;23486;51.956;5.888;2023-06-14T09:35:11;1.70;;;0.40;;
37641;SDS011;23486;51.956;5.888;2023-06-14T09:37:37;0.82;;;0.30;;
37641;SDS011;23486;51.956;5.888;2023-06-14T09:40:04;1.95;;;0.43;;
37641;SDS011;23486;51.956;5.888;2023-06-14T09:42:30;1.95;;;0.55;;
37641;SDS011;23486;51.956;5.888;2023-06-14T09:44:59;1.85;;;0.50;;
37641;SDS011;23486;51.956;5.888;2023-06-14T09:47:25;1.20;;;0.40;;
37641;SDS011;23486;51.956;5.888;2023-06-14T09:49:51;4.30;;;0.55;;
37641;SDS011;23486;51.956;5.888;2023-06-14T09:52:20;1.98;;;0.45;;
37641;SDS011;23486;51.956;5.888;2023-06-14T09:54:47;1.42;;;0.40;;
37641;SDS011;23486;51.956;5.888;2023-06-14T09:57:17;2.70;;;0.40;;
37641;SDS011;23486;51.956;5.888;2023-06-14T09:59:47;2.97;;;0.52;;
37641;SDS011;23486;51.956;5.888;2023-06-14T10:02:26;1.75;;;0.47;;
37641;SDS011;23486;51.956;5.888;2023-06-14T10:05:12;1.70;;;0.45;;
37641;SDS011;23486;51.956;5.888;2023-06-14T10:07:42;2.67;;;0.50;;
37641;SDS011;23486;51.956;5.888;2023-06-14T10:10:17;2.72;;;0.40;;
37641;SDS011;23486;51.956;5.888;2023-06-14T10:12:43;2.20;;;0.40;;
37641;SDS011;23486;51.956;5.888;2023-06-14T10:15:10;3.03;;;0.40;;
37641;SDS011;23486;51.956;5.888;2023-06-14T10:20:55;4.28;;;0.50;;
37641;SDS011;23486;51.956;5.888;2023-06-14T10:23:24;1.52;;;0.30;;
37641;SDS011;23486;51.956;5.888;2023-06-14T10:25:50;1.13;;;0.30;;
37641;SDS011;23486;51.956;5.888;2023-06-14T10:28:21;2.42;;;0.40;;
37641;SDS011;23486;51.956;5.888;2023-06-14T10:38:59;2.83;;;0.50;;
37641;SDS011;23486;51.956;5.888;2023-06-14T10:41:29;1.52;;;0.40;;
37641;SDS011;23486;51.956;5.888;2023-06-14T10:49:05;1.38;;;0.40;;
37641;SDS011;23486;51.956;5.888;2023-06-14T10:51:41;1.95;;;0.40;;
37641;SDS011;23486;51.956;5.888;2023-06-14T10:54:14;1.30;;;0.40;;
37641;SDS011;23486;51.956;5.888;2023-06-14T10:56:46;3.53;;;0.40;;
37641;SDS011;23486;51.956;5.888;2023-06-14T10:59:16;1.45;;;0.40;;
37641;SDS011;23486;51.956;5.888;2023-06-14T11:02:07;1.08;;;0.30;;
37641;SDS011;23486;51.956;5.888;2023-06-14T11:05:08;1.75;;;0.30;;
37641;SDS011;23486;51.956;5.888;2023-06-14T11:10:22;3.72;;;0.40;;
37641;SDS011;23486;51.956;5.888;2023-06-14T11:12:57;1.20;;;0.40;;
37641;SDS011;23486;51.956;5.888;2023-06-14T11:15:28;1.70;;;0.47;;
37641;SDS011;23486;51.956;5.888;2023-06-14T11:18:01;1.80;;;0.40;;
37641;SDS011;23486;51.956;5.888;2023-06-14T11:20:29;1.42;;;0.40;;
37641;SDS011;23486;51.956;5.888;2023-06-14T11:22:56;2.30;;;0.50;;
37641;SDS011;23486;51.956;5.888;2023-06-14T11:25:22;4.45;;;0.40;;
37641;SDS011;23486;51.956;5.888;2023-06-14T11:27:51;2.40;;;0.60;;
37641;SDS011;23486;51.956;5.888;2023-06-14T11:30:16;1.52;;;0.40;;
37641;SDS011;23486;51.956;5.888;2023-06-14T11:32:45;2.30;;;0.50;;
37641;SDS011;23486;51.956;5.888;2023-06-14T11:35:11;2.03;;;0.50;;
37641;SDS011;23486;51.956;5.888;2023-06-14T11:37:37;2.50;;;0.60;;
37641;SDS011;23486;51.956;5.888;2023-06-14T11:40:03;3.25;;;0.60;;
37641;SDS011;23486;51.956;5.888;2023-06-14T11:42:38;6.13;;;0.40;;
37641;SDS011;23486;51.956;5.888;2023-06-14T11:45:08;1.50;;;0.40;;
37641;SDS011;23486;51.956;5.888;2023-06-14T11:47:39;3.80;;;0.50;;
37641;SDS011;23486;51.956;5.888;2023-06-14T11:50:08;3.38;;;0.50;;
37641;SDS011;23486;51.956;5.888;2023-06-14T11:52:35;2.38;;;0.50;;
37641;SDS011;23486;51.956;5.888;2023-06-14T11:55:02;3.35;;;0.60;;
37641;SDS011;23486;51.956;5.888;2023-06-14T11:57:33;1.25;;;0.30;;
37641;SDS011;23486;51.956;5.888;2023-06-14T12:00:02;2.45;;;0.30;;
37641;SDS011;23486;51.956;5.888;2023-06-14T12:02:31;1.88;;;0.40;;
37641;SDS011;23486;51.956;5.888;2023-06-14T12:05:03;0.93;;;0.30;;
37641;SDS011;23486;51.956;5.888;2023-06-14T12:07:30;2.25;;;0.40;;
37641;SDS011;23486;51.956;5.888;2023-06-14T12:12:22;2.55;;;0.40;;
37641;SDS011;23486;51.956;5.888;2023-06-14T12:14:50;2.22;;;0.55;;
37641;SDS011;23486;51.956;5.888;2023-06-14T12:17:16;2.22;;;0.60;;
37641;SDS011;23486;51.956;5.888;2023-06-14T12:19:43;2.08;;;0.70;;
37641;SDS011;23486;51.956;5.888;2023-06-14T12:22:10;1.20;;;0.30;;
37641;SDS011;23486;51.956;5.888;2023-06-14T12:24:36;1.50;;;0.30;;
37641;SDS011;23486;51.956;5.888;2023-06-14T12:27:05;2.78;;;0.47;;
37641;SDS011;23486;51.956;5.888;2023-06-14T12:29:31;2.30;;;0.60;;
37641;SDS011;23486;51.956;5.888;2023-06-14T12:31:57;1.77;;;0.43;;
37641;SDS011;23486;51.956;5.888;2023-06-14T12:34:26;1.55;;;0.50;;
37641;SDS011;23486;51.956;5.888;2023-06-14T12:36:55;1.35;;;0.40;;
37641;SDS011;23486;51.956;5.888;2023-06-14T12:39:23;4.30;;;0.40;;
37641;SDS011;23486;51.956;5.888;2023-06-14T12:41:49;1.48;;;0.45;;
37641;SDS011;23486;51.956;5.888;2023-06-14T12:44:15;1.50;;;0.40;;
37641;SDS011;23486;51.956;5.888;2023-06-14T12:46:41;1.50;;;0.40;;
37641;SDS011;23486;51.956;5.888;2023-06-14T12:49:08;3.80;;;0.40;;
37641;SDS011;23486;51.956;5.888;2023-06-14T12:51:34;1.35;;;0.40;;
37641;SDS011;23486;51.956;5.888;2023-06-14T12:54:00;1.15;;;0.30;;
37641;SDS011;23486;51.956;5.888;2023-06-14T12:56:28;3.40;;;0.40;;
37641;SDS011;23486;51.956;5.888;2023-06-14T12:58:54;2.10;;;0.40;;
37641;SDS011;23486;51.956;5.888;2023-06-14T13:01:19;1.70;;;0.50;;
37641;SDS011;23486;51.956;5.888;2023-06-14T13:03:46;1.02;;;0.40;;
37641;SDS011;23486;51.956;5.888;2023-06-14T13:06:12;2.00;;;0.40;;
37641;SDS011;23486;51.956;5.888;2023-06-14T13:08:38;2.83;;;0.45;;
37641;SDS011;23486;51.956;5.888;2023-06-14T13:11:03;3.08;;;0.40;;
37641;SDS011;23486;51.956;5.888;2023-06-14T13:13:35;1.25;;;0.40;;
37641;SDS011;23486;51.956;5.888;2023-06-14T13:16:04;2.80;;;0.30;;
37641;SDS011;23486;51.956;5.888;2023-06-14T13:18:30;1.48;;;0.20;;
37641;SDS011;23486;51.956;5.888;2023-06-14T13:20:55;1.40;;;0.30;;
37641;SDS011;23486;51.956;5.888;2023-06-14T13:23:21;0.70;;;0.20;;
37641;SDS011;23486;51.956;5.888;2023-06-14T13:25:46;1.45;;;0.30;;
37641;SDS011;23486;51.956;5.888;2023-06-14T13:28:14;1.08;;;0.30;;
37641;SDS011;23486;51.956;5.888;2023-06-14T13:30:43;1.85;;;0.28;;
37641;SDS011;23486;51.956;5.888;2023-06-14T13:33:08;3.33;;;0.30;;
37641;SDS011;23486;51.956;5.888;2023-06-14T13:35:34;0.90;;;0.30;;
37641;SDS011;23486;51.956;5.888;2023-06-14T13:38:00;2.58;;;0.30;;
37641;SDS011;23486;51.956;5.888;2023-06-14T13:40:26;0.70;;;0.20;;
37641;SDS011;23486;51.956;5.888;2023-06-14T13:42:51;1.60;;;0.20;;
37641;SDS011;23486;51.956;5.888;2023-06-14T13:45:17;1.88;;;0.30;;
37641;SDS011;23486;51.956;5.888;2023-06-14T13:47:43;1.75;;;0.22;;
37641;SDS011;23486;51.956;5.888;2023-06-14T13:50:08;0.70;;;0.20;;
37641;SDS011;23486;51.956;5.888;2023-06-14T13:52:34;0.65;;;0.20;;
37641;SDS011;23486;51.956;5.888;2023-06-14T13:55:00;1.52;;;0.10;;
37641;SDS011;23486;51.956;5.888;2023-06-14T13:57:26;0.93;;;0.20;;
37641;SDS011;23486;51.956;5.888;2023-06-14T13:59:51;3.30;;;0.20;;
37641;SDS011;23486;51.956;5.888;2023-06-14T14:02:20;3.83;;;0.20;;
37641;SDS011;23486;51.956;5.888;2023-06-14T14:04:46;1.00;;;0.20;;
37641;SDS011;23486;51.956;5.888;2023-06-14T14:07:17;0.90;;;0.28;;
37641;SDS011;23486;51.956;5.888;2023-06-14T14:09:46;0.93;;;0.20;;
37641;SDS011;23486;51.956;5.888;2023-06-14T14:12:15;2.25;;;0.30;;
37641;SDS011;23486;51.956;5.888;2023-06-14T14:14:40;1.50;;;0.30;;
37641;SDS011;23486;51.956;5.888;2023-06-14T14:17:06;2.08;;;0.25;;
37641;SDS011;23486;51.956;5.888;2023-06-14T14:19:35;0.93;;;0.30;;
37641;SDS011;23486;51.956;5.888;2023-06-14T14:22:06;3.57;;;0.23;;
37641;SDS011;23486;51.956;5.888;2023-06-14T14:24:32;1.73;;;0.30;;
37641;SDS011;23486;51.956;5.888;2023-06-14T14:26:57;1.02;;;0.20;;
37641;SDS011;23486;51.956;5.888;2023-06-14T14:29:25;0.60;;;0.20;;
37641;SDS011;23486;51.956;5.888;2023-06-14T14:31:53;0.98;;;0.20;;
37641;SDS011;23486;51.956;5.888;2023-06-14T14:34:20;2.22;;;0.30;;
37641;SDS011;23486;51.956;5.888;2023-06-14T14:36:45;0.75;;;0.20;;
37641;SDS011;23486;51.956;5.888;2023-06-14T14:39:11;3.83;;;0.30;;
37641;SDS011;23486;51.956;5.888;2023-06-14T14:41:36;1.10;;;0.20;;
37641;SDS011;23486;51.956;5.888;2023-06-14T14:44:03;1.02;;;0.30;;
37641;SDS011;23486;51.956;5.888;2023-06-14T14:46:29;0.60;;;0.20;;
37641;SDS011;23486;51.956;5.888;2023-06-14T14:48:54;0.90;;;0.20;;
37641;SDS011;23486;51.956;5.888;2023-06-14T14:51:20;2.35;;;0.28;;
37641;SDS011;23486;51.956;5.888;2023-06-14T14:53:46;0.77;;;0.17;;
37641;SDS011;23486;51.956;5.888;2023-06-14T14:56:11;1.02;;;0.20;;
37641;SDS011;23486;51.956;5.888;2023-06-14T14:58:37;0.75;;;0.20;;
37641;SDS011;23486;51.956;5.888;2023-06-14T15:01:03;2.53;;;0.30;;
37641;SDS011;23486;51.956;5.888;2023-06-14T15:03:30;1.70;;;0.40;;
37641;SDS011;23486;51.956;5.888;2023-06-14T15:05:56;0.93;;;0.30;;
37641;SDS011;23486;51.956;5.888;2023-06-14T15:08:22;0.88;;;0.30;;
37641;SDS011;23486;51.956;5.888;2023-06-14T15:10:47;1.17;;;0.20;;
37641;SDS011;23486;51.956;5.888;2023-06-14T15:13:13;0.80;;;0.20;;
37641;SDS011;23486;51.956;5.888;2023-06-14T15:15:39;1.08;;;0.20;;
37641;SDS011;23486;51.956;5.888;2023-06-14T15:18:04;3.67;;;0.30;;
37641;SDS011;23486;51.956;5.888;2023-06-14T15:23:06;1.00;;;0.30;;